sensor_id;sensor_type;location;lat;lon;timestamp;pressure;altitude;pressure_sealevel;temperature;humidity
64192;BME280;50497;50.720;-2.084;2022-10-12T00:01:45;102392.09;;;7.16;100.00
64192;BME280;50497;50.720;-2.084;2022-10-12T00:04:14;102398.25;;;7.26;100.00
64192;BME280;50497;50.720;-2.084;2022-10-12T00:06:42;102394.72;;;7.27;100.00
64192;BME280;50497;50.720;-2.084;2022-10-12T00:09:10;102392.91;;;7.32;100.00
64192;BME280;50497;50.720;-2.084;2022-10-12T00:11:42;102391.97;;;7.38;100.00
64192;BME280;50497;50.720;-2.084;2022-10-12T00:14:11;102387.53;;;7.35;100.00
64192;BME280;50497;50.720;-2.084;2022-10-12T00:16:51;102387.53;;;7.35;100.00
64192;BME280;50497;50.720;-2.084;2022-10-12T00:19:18;102399.78;;;7.59;100.00
64192;BME280;50497;50.720;-2.084;2022-10-12T00:21:45;102404.22;;;7.61;100.00
64192;BME280;50497;50.720;-2.084;2022-10-12T00:24:15;102399.78;;;7.59;100.00
64192;BME280;50497;50.720;-2.084;2022-10-12T00:26:49;102401.47;;;7.67;100.00
64192;BME280;50497;50.720;-2.084;2022-10-12T00:29:19;102412.09;;;7.71;100.00
64192;BME280;50497;50.720;-2.084;2022-10-12T00:31:48;102418.25;;;7.78;100.00
64192;BME280;50497;50.720;-2.084;2022-10-12T00:34:19;102412.00;;;7.84;100.00
64192;BME280;50497;50.720;-2.084;2022-10-12T00:36:47;102411.09;;;7.85;100.00
64192;BME280;50497;50.720;-2.084;2022-10-12T00:39:13;102410.09;;;7.95;100.00
64192;BME280;50497;50.720;-2.084;2022-10-12T00:41:44;102412.81;;;7.92;100.00
64192;BME280;50497;50.720;-2.084;2022-10-12T00:44:43;102405.59;;;8.02;100.00
64192;BME280;50497;50.720;-2.084;2022-10-12T00:53:05;102387.81;;;8.07;100.00
64192;BME280;50497;50.720;-2.084;2022-10-12T00:55:37;102392.13;;;8.17;100.00
64192;BME280;50497;50.720;-2.084;2022-10-12T00:58:08;102394.69;;;8.25;100.00
64192;BME280;50497;50.720;-2.084;2022-10-12T01:00:40;102396.44;;;8.27;100.00
64192;BME280;50497;50.720;-2.084;2022-10-12T01:03:09;102402.63;;;8.31;100.00
64192;BME280;50497;50.720;-2.084;2022-10-12T01:05:41;102395.50;;;8.31;100.00
64192;BME280;50497;50.720;-2.084;2022-10-12T01:08:09;102382.13;;;8.35;100.00
64192;BME280;50497;50.720;-2.084;2022-10-12T01:10:42;102343.34;;;8.07;100.00
64192;BME280;50497;50.720;-2.084;2022-10-12T01:13:12;102353.06;;;8.13;100.00
64192;BME280;50497;50.720;-2.084;2022-10-12T01:16:00;102356.63;;;8.13;100.00
64192;BME280;50497;50.720;-2.084;2022-10-12T01:18:39;102354.00;;;8.09;100.00
64192;BME280;50497;50.720;-2.084;2022-10-12T01:21:25;102326.53;;;8.04;100.00
64192;BME280;50497;50.720;-2.084;2022-10-12T01:40:39;102323.22;;;7.78;100.00
64192;BME280;50497;50.720;-2.084;2022-10-12T01:43:08;102311.66;;;7.80;100.00
64192;BME280;50497;50.720;-2.084;2022-10-12T01:45:41;102300.09;;;7.82;100.00
64192;BME280;50497;50.720;-2.084;2022-10-12T01:48:06;102304.66;;;7.72;100.00
64192;BME280;50497;50.720;-2.084;2022-10-12T01:50:55;102320.75;;;7.60;100.00
64192;BME280;50497;50.720;-2.084;2022-10-12T01:56:11;102305.63;;;7.64;100.00
64192;BME280;50497;50.720;-2.084;2022-10-12T02:01:45;102296.66;;;7.72;100.00
64192;BME280;50497;50.720;-2.084;2022-10-12T02:04:40;102285.19;;;7.64;100.00
64192;BME280;50497;50.720;-2.084;2022-10-12T02:07:43;102289.72;;;7.56;100.00
64192;BME280;50497;50.720;-2.084;2022-10-12T02:10:17;102299.59;;;7.43;100.00
64192;BME280;50497;50.720;-2.084;2022-10-12T02:12:51;102293.38;;;7.44;100.00
64192;BME280;50497;50.720;-2.084;2022-10-12T02:15:24;102288.09;;;7.38;100.00
64192;BME280;50497;50.720;-2.084;2022-10-12T02:17:55;102287.16;;;7.45;100.00
64192;BME280;50497;50.720;-2.084;2022-10-12T02:20:28;102280.06;;;7.46;100.00
64192;BME280;50497;50.720;-2.084;2022-10-12T02:22:55;102280.09;;;7.41;100.00
64192;BME280;50497;50.720;-2.084;2022-10-12T02:25:32;102278.41;;;7.34;100.00
64192;BME280;50497;50.720;-2.084;2022-10-12T02:28:06;102276.75;;;7.17;100.00
64192;BME280;50497;50.720;-2.084;2022-10-12T02:30:47;102284.75;;;7.17;100.00
64192;BME280;50497;50.720;-2.084;2022-10-12T02:33:26;102275.94;;;7.12;100.00
64192;BME280;50497;50.720;-2.084;2022-10-12T02:36:18;102276.78;;;7.13;100.00
64192;BME280;50497;50.720;-2.084;2022-10-12T02:39:16;102282.28;;;6.94;100.00
64192;BME280;50497;50.720;-2.084;2022-10-12T02:41:45;102268.13;;;6.89;100.00
64192;BME280;50497;50.720;-2.084;2022-10-12T02:44:14;102281.38;;;6.94;100.00
64192;BME280;50497;50.720;-2.084;2022-10-12T02:46:42;102289.31;;;6.98;100.00
64192;BME280;50497;50.720;-2.084;2022-10-12T02:49:14;102281.28;;;7.09;100.00
64192;BME280;50497;50.720;-2.084;2022-10-12T02:51:41;102277.66;;;7.13;100.00
64192;BME280;50497;50.720;-2.084;2022-10-12T02:54:15;102287.47;;;7.10;100.00
64192;BME280;50497;50.720;-2.084;2022-10-12T02:56:53;102267.84;;;7.21;100.00
64192;BME280;50497;50.720;-2.084;2022-10-12T02:59:30;102270.53;;;7.17;100.00
64192;BME280;50497;50.720;-2.084;2022-10-12T03:02:06;102273.13;;;7.26;100.00
64192;BME280;50497;50.720;-2.084;2022-10-12T03:04:41;102279.28;;;7.33;100.00
64192;BME280;50497;50.720;-2.084;2022-10-12T03:07:07;102270.31;;;7.43;100.00
64192;BME280;50497;50.720;-2.084;2022-10-12T03:09:37;102251.69;;;7.40;100.00
64192;BME280;50497;50.720;-2.084;2022-10-12T03:12:09;102272.94;;;7.46;100.00
64192;BME280;50497;50.720;-2.084;2022-10-12T03:14:43;102274.72;;;7.49;100.00
64192;BME280;50497;50.720;-2.084;2022-10-12T03:17:14;102267.41;;;7.65;100.00
64192;BME280;50497;50.720;-2.084;2022-10-12T03:19:44;102254.88;;;7.74;100.00
64192;BME280;50497;50.720;-2.084;2022-10-12T03:22:15;102256.69;;;7.74;100.00
64192;BME280;50497;50.720;-2.084;2022-10-12T03:24:43;102256.53;;;7.86;100.00
64192;BME280;50497;50.720;-2.084;2022-10-12T03:27:09;102250.28;;;7.89;100.00
64192;BME280;50497;50.720;-2.084;2022-10-12T03:29:39;102248.66;;;7.77;100.00
64192;BME280;50497;50.720;-2.084;2022-10-12T03:32:08;102250.34;;;7.83;100.00
64192;BME280;50497;50.720;-2.084;2022-10-12T03:34:33;102249.44;;;7.85;100.00
64192;BME280;50497;50.720;-2.084;2022-10-12T03:37:03;102248.44;;;7.95;100.00
64192;BME280;50497;50.720;-2.084;2022-10-12T03:39:34;102247.50;;;7.96;100.00
64192;BME280;50497;50.720;-2.084;2022-10-12T03:42:04;102231.53;;;7.95;100.00
64192;BME280;50497;50.720;-2.084;2022-10-12T03:44:31;102240.47;;;7.92;100.00
64192;BME280;50497;50.720;-2.084;2022-10-12T03:47:04;102245.81;;;7.92;100.00
64192;BME280;50497;50.720;-2.084;2022-10-12T03:49:37;102247.66;;;7.86;100.00
64192;BME280;50497;50.720;-2.084;2022-10-12T03:52:07;102238.88;;;7.77;100.00
64192;BME280;50497;50.720;-2.084;2022-10-12T03:54:39;102230.94;;;7.73;100.00
64192;BME280;50497;50.720;-2.084;2022-10-12T03:57:09;102221.28;;;7.63;100.00
64192;BME280;50497;50.720;-2.084;2022-10-12T03:59:34;102225.78;;;7.57;100.00
64192;BME280;50497;50.720;-2.084;2022-10-12T04:02:10;102232.94;;;7.54;100.00
64192;BME280;50497;50.720;-2.084;2022-10-12T04:04:41;102236.38;;;7.62;100.00
64192;BME280;50497;50.720;-2.084;2022-10-12T04:07:14;102245.31;;;7.55;100.00
64192;BME280;50497;50.720;-2.084;2022-10-12T04:09:44;102244.44;;;7.54;100.00
64192;BME280;50497;50.720;-2.084;2022-10-12T04:12:16;102247.06;;;7.61;100.00
64192;BME280;50497;50.720;-2.084;2022-10-12T04:14:43;102249.59;;;7.70;100.00
64192;BME280;50497;50.720;-2.084;2022-10-12T04:17:16;102247.72;;;7.78;100.00
64192;BME280;50497;50.720;-2.084;2022-10-12T04:19:46;102244.16;;;7.81;100.00
64192;BME280;50497;50.720;-2.084;2022-10-12T04:22:12;102252.13;;;7.84;100.00
64192;BME280;50497;50.720;-2.084;2022-10-12T04:24:41;102227.41;;;7.69;100.00
64192;BME280;50497;50.720;-2.084;2022-10-12T04:27:11;102230.94;;;7.73;100.00
64192;BME280;50497;50.720;-2.084;2022-10-12T04:29:36;102240.59;;;7.80;100.00
64192;BME280;50497;50.720;-2.084;2022-10-12T04:32:13;102246.88;;;7.77;100.00
64192;BME280;50497;50.720;-2.084;2022-10-12T04:34:39;102247.72;;;7.78;100.00
64192;BME280;50497;50.720;-2.084;2022-10-12T04:37:11;102237.84;;;7.88;100.00
64192;BME280;50497;50.720;-2.084;2022-10-12T04:39:40;102234.31;;;7.87;100.00
64192;BME280;50497;50.720;-2.084;2022-10-12T04:42:09;102225.34;;;7.93;100.00
64192;BME280;50497;50.720;-2.084;2022-10-12T04:44:36;102215.66;;;7.87;100.00
64192;BME280;50497;50.720;-2.084;2022-10-12T04:47:06;102213.00;;;7.86;100.00
64192;BME280;50497;50.720;-2.084;2022-10-12T04:49:35;102202.38;;;7.83;100.00
64192;BME280;50497;50.720;-2.084;2022-10-12T04:52:07;102196.97;;;7.90;100.00
64192;BME280;50497;50.720;-2.084;2022-10-12T04:54:39;102176.66;;;7.78;100.00
64192;BME280;50497;50.720;-2.084;2022-10-12T04:57:05;102190.78;;;7.87;100.00
64192;BME280;50497;50.720;-2.084;2022-10-12T04:59:33;102210.41;;;7.81;100.00
64192;BME280;50497;50.720;-2.084;2022-10-12T05:01:59;102221.09;;;7.78;100.00
64192;BME280;50497;50.720;-2.084;2022-10-12T05:04:28;102237.94;;;7.80;100.00
64192;BME280;50497;50.720;-2.084;2022-10-12T05:06:53;102243.22;;;7.85;100.00
64192;BME280;50497;50.720;-2.084;2022-10-12T05:09:24;102231.75;;;7.78;100.00
64192;BME280;50497;50.720;-2.084;2022-10-12T05:11:56;102220.16;;;7.84;100.00
64192;BME280;50497;50.720;-2.084;2022-10-12T05:14:21;102224.53;;;7.86;100.00
64192;BME280;50497;50.720;-2.084;2022-10-12T05:16:52;102211.41;;;7.72;100.00
64192;BME280;50497;50.720;-2.084;2022-10-12T05:19:21;102228.06;;;7.88;100.00
64192;BME280;50497;50.720;-2.084;2022-10-12T05:21:55;102216.50;;;7.91;100.00
64192;BME280;50497;50.720;-2.084;2022-10-12T05:24:24;102206.88;;;7.81;100.00
64192;BME280;50497;50.720;-2.084;2022-10-12T05:26:53;102197.13;;;7.76;100.00
64192;BME280;50497;50.720;-2.084;2022-10-12T05:29:23;102183.00;;;7.70;100.00
64192;BME280;50497;50.720;-2.084;2022-10-12T05:31:55;102211.25;;;7.83;100.00
64192;BME280;50497;50.720;-2.084;2022-10-12T05:34:23;102206.75;;;7.88;100.00
64192;BME280;50497;50.720;-2.084;2022-10-12T05:37:03;102205.91;;;7.86;100.00
64192;BME280;50497;50.720;-2.084;2022-10-12T05:39:29;102191.75;;;7.80;100.00
64192;BME280;50497;50.720;-2.084;2022-10-12T05:42:02;102201.28;;;7.99;100.00
64192;BME280;50497;50.720;-2.084;2022-10-12T05:44:31;102198.63;;;7.99;100.00
64192;BME280;50497;50.720;-2.084;2022-10-12T05:47:01;102204.88;;;7.96;100.00
64192;BME280;50497;50.720;-2.084;2022-10-12T05:49:34;102198.56;;;8.05;100.00
64192;BME280;50497;50.720;-2.084;2022-10-12T05:52:03;102187.13;;;7.95;100.00
64192;BME280;50497;50.720;-2.084;2022-10-12T05:54:35;102196.81;;;8.01;100.00
64192;BME280;50497;50.720;-2.084;2022-10-12T05:57:04;102206.66;;;7.98;100.00
64192;BME280;50497;50.720;-2.084;2022-10-12T05:59:30;102213.78;;;7.95;100.00
64192;BME280;50497;50.720;-2.084;2022-10-12T06:01:55;102218.13;;;8.03;100.00
64192;BME280;50497;50.720;-2.084;2022-10-12T06:04:27;102216.41;;;8.00;100.00
64192;BME280;50497;50.720;-2.084;2022-10-12T06:06:52;102205.69;;;8.02;100.00
64192;BME280;50497;50.720;-2.084;2022-10-12T06:09:27;102172.09;;;7.90;100.00
64192;BME280;50497;50.720;-2.084;2022-10-12T06:11:58;102196.84;;;8.00;100.00
64192;BME280;50497;50.720;-2.084;2022-10-12T06:14:30;102177.44;;;7.88;100.00
64192;BME280;50497;50.720;-2.084;2022-10-12T06:16:56;102190.72;;;7.91;100.00
64192;BME280;50497;50.720;-2.084;2022-10-12T06:19:26;102192.50;;;7.92;100.00
64192;BME280;50497;50.720;-2.084;2022-10-12T06:21:55;102196.97;;;7.90;100.00
64192;BME280;50497;50.720;-2.084;2022-10-12T06:24:27;102199.78;;;7.78;100.00
64192;BME280;50497;50.720;-2.084;2022-10-12T06:26:52;102198.94;;;7.73;100.00
64192;BME280;50497;50.720;-2.084;2022-10-12T06:29:22;102191.03;;;7.65;100.00
64192;BME280;50497;50.720;-2.084;2022-10-12T06:31:54;102185.91;;;7.48;100.00
64192;BME280;50497;50.720;-2.084;2022-10-12T06:34:20;102204.69;;;7.37;100.00
64192;BME280;50497;50.720;-2.084;2022-10-12T06:36:49;102194.88;;;7.43;100.00
64192;BME280;50497;50.720;-2.084;2022-10-12T06:39:20;102194.88;;;7.43;100.00
64192;BME280;50497;50.720;-2.084;2022-10-12T06:41:55;102206.41;;;7.42;100.00
64192;BME280;50497;50.720;-2.084;2022-10-12T06:44:23;102205.56;;;7.39;100.00
64192;BME280;50497;50.720;-2.084;2022-10-12T06:47:00;102202.88;;;7.39;100.00
64192;BME280;50497;50.720;-2.084;2022-10-12T06:49:26;102211.69;;;7.48;100.00
64192;BME280;50497;50.720;-2.084;2022-10-12T06:51:52;102210.81;;;7.46;100.00
64192;BME280;50497;50.720;-2.084;2022-10-12T06:54:21;102208.06;;;7.52;100.00
64192;BME280;50497;50.720;-2.084;2022-10-12T06:56:47;102211.50;;;7.62;100.00
64192;BME280;50497;50.720;-2.084;2022-10-12T06:59:13;102208.06;;;7.52;100.00
64192;BME280;50497;50.720;-2.084;2022-10-12T07:01:44;102212.56;;;7.45;100.00
64192;BME280;50497;50.720;-2.084;2022-10-12T07:04:15;102209.81;;;7.56;100.00
64192;BME280;50497;50.720;-2.084;2022-10-12T07:06:41;102209.88;;;7.48;100.00
64192;BME280;50497;50.720;-2.084;2022-10-12T07:09:11;102219.59;;;7.55;100.00
64192;BME280;50497;50.720;-2.084;2022-10-12T07:11:36;102198.38;;;7.46;100.00
64192;BME280;50497;50.720;-2.084;2022-10-12T07:14:10;102216.03;;;7.53;100.00
64192;BME280;50497;50.720;-2.084;2022-10-12T07:16:39;102217.81;;;7.54;100.00
64192;BME280;50497;50.720;-2.084;2022-10-12T07:19:07;102216.97;;;7.52;100.00
64192;BME280;50497;50.720;-2.084;2022-10-12T07:21:36;102209.94;;;7.44;100.00
64192;BME280;50497;50.720;-2.084;2022-10-12T07:24:05;102211.75;;;7.40;100.00
64192;BME280;50497;50.720;-2.084;2022-10-12T07:26:36;102186.13;;;7.30;100.00
64192;BME280;50497;50.720;-2.084;2022-10-12T07:29:06;102178.97;;;7.35;100.00
64192;BME280;50497;50.720;-2.084;2022-10-12T07:31:35;102173.81;;;7.21;100.00
64192;BME280;50497;50.720;-2.084;2022-10-12T07:34:03;102179.84;;;7.35;100.00
64192;BME280;50497;50.720;-2.084;2022-10-12T07:36:29;102170.09;;;7.36;100.00
64192;BME280;50497;50.720;-2.084;2022-10-12T07:38:58;102185.22;;;7.34;100.00
64192;BME280;50497;50.720;-2.084;2022-10-12T07:41:28;102192.25;;;7.38;100.00
64192;BME280;50497;50.720;-2.084;2022-10-12T07:43:54;102182.47;;;7.37;100.00
64192;BME280;50497;50.720;-2.084;2022-10-12T07:46:20;102181.59;;;7.39;100.00
64192;BME280;50497;50.720;-2.084;2022-10-12T07:48:50;102159.47;;;7.33;100.00
64192;BME280;50497;50.720;-2.084;2022-10-12T07:51:23;102183.38;;;7.40;100.00
64192;BME280;50497;50.720;-2.084;2022-10-12T07:53:51;102177.16;;;7.37;100.00
64192;BME280;50497;50.720;-2.084;2022-10-12T07:56:21;102180.63;;;7.45;100.00
64192;BME280;50497;50.720;-2.084;2022-10-12T07:58:48;102166.31;;;7.55;100.00
64192;BME280;50497;50.720;-2.084;2022-10-12T08:01:20;102172.41;;;7.65;100.00
64192;BME280;50497;50.720;-2.084;2022-10-12T08:03:48;102160.78;;;7.74;100.00
64192;BME280;50497;50.720;-2.084;2022-10-12T08:06:21;102162.38;;;7.87;100.00
64192;BME280;50497;50.720;-2.084;2022-10-12T08:08:50;102160.44;;;8.00;100.00
64192;BME280;50497;50.720;-2.084;2022-10-12T08:11:17;102153.91;;;8.20;100.00
64192;BME280;50497;50.720;-2.084;2022-10-12T08:13:42;102151.75;;;8.45;100.00
64192;BME280;50497;50.720;-2.084;2022-10-12T08:16:14;102157.75;;;8.61;100.00
64192;BME280;50497;50.720;-2.084;2022-10-12T08:18:41;102159.28;;;8.76;100.00
64192;BME280;50497;50.720;-2.084;2022-10-12T08:21:11;102133.38;;;8.81;100.00
64192;BME280;50497;50.720;-2.084;2022-10-12T08:23:42;102139.38;;;8.95;100.00
64192;BME280;50497;50.720;-2.084;2022-10-12T08:26:13;102144.72;;;8.95;100.00
64192;BME280;50497;50.720;-2.084;2022-10-12T08:28:45;102152.66;;;8.98;100.00
64192;BME280;50497;50.720;-2.084;2022-10-12T08:31:13;102155.19;;;9.04;100.00
64192;BME280;50497;50.720;-2.084;2022-10-12T08:33:42;102145.44;;;9.03;100.00
64192;BME280;50497;50.720;-2.084;2022-10-12T08:36:11;102160.03;;;9.32;100.00
64192;BME280;50497;50.720;-2.084;2022-10-12T08:38:40;102160.66;;;9.89;100.00
64192;BME280;50497;50.720;-2.084;2022-10-12T08:47:00;102138.50;;;13.51;100.00
64192;BME280;50497;50.720;-2.084;2022-10-12T08:49:31;102127.94;;;14.37;100.00
64192;BME280;50497;50.720;-2.084;2022-10-12T08:52:00;102125.53;;;14.74;100.00
64192;BME280;50497;50.720;-2.084;2022-10-12T08:54:37;102124.75;;;14.92;100.00
64192;BME280;50497;50.720;-2.084;2022-10-12T08:57:15;102112.94;;;15.55;100.00
64192;BME280;50497;50.720;-2.084;2022-10-12T08:59:41;102129.00;;;15.58;100.00
64192;BME280;50497;50.720;-2.084;2022-10-12T09:05:32;102133.00;;;15.89;100.00
64192;BME280;50497;50.720;-2.084;2022-10-12T09:08:27;102129.81;;;15.21;100.00
64192;BME280;50497;50.720;-2.084;2022-10-12T09:11:04;102150.34;;;15.23;100.00
64192;BME280;50497;50.720;-2.084;2022-10-12T09:13:49;102147.00;;;14.98;100.00
64192;BME280;50497;50.720;-2.084;2022-10-12T09:16:23;102165.31;;;14.89;100.00
64192;BME280;50497;50.720;-2.084;2022-10-12T09:19:07;102171.75;;;14.85;100.00
64192;BME280;50497;50.720;-2.084;2022-10-12T09:21:42;102173.88;;;14.99;100.00
64192;BME280;50497;50.720;-2.084;2022-10-12T09:24:15;102173.41;;;14.89;100.00
64192;BME280;50497;50.720;-2.084;2022-10-12T09:26:49;102162.69;;;15.29;100.00
64192;BME280;50497;50.720;-2.084;2022-10-12T09:29:28;102159.84;;;15.52;100.00
64192;BME280;50497;50.720;-2.084;2022-10-12T09:34:53;102155.75;;;16.02;100.00
64192;BME280;50497;50.720;-2.084;2022-10-12T09:37:28;102150.84;;;15.92;100.00
64192;BME280;50497;50.720;-2.084;2022-10-12T09:39:58;102155.75;;;16.02;100.00
64192;BME280;50497;50.720;-2.084;2022-10-12T09:42:28;102151.56;;;15.95;100.00
64192;BME280;50497;50.720;-2.084;2022-10-12T09:45:15;102139.63;;;15.82;100.00
64192;BME280;50497;50.720;-2.084;2022-10-12T09:48:19;102146.06;;;15.79;100.00
64192;BME280;50497;50.720;-2.084;2022-10-12T09:50:54;102146.72;;;15.84;100.00
64192;BME280;50497;50.720;-2.084;2022-10-12T09:53:34;102122.19;;;15.89;100.00
64192;BME280;50497;50.720;-2.084;2022-10-12T09:56:25;102132.97;;;16.08;100.00
64192;BME280;50497;50.720;-2.084;2022-10-12T09:58:59;102118.16;;;17.23;100.00
64192;BME280;50497;50.720;-2.084;2022-10-12T10:01:27;102093.63;;;17.93;100.00
64192;BME280;50497;50.720;-2.084;2022-10-12T10:04:21;102081.47;;;18.77;100.00
64192;BME280;50497;50.720;-2.084;2022-10-12T10:06:51;102059.38;;;18.99;100.00
64192;BME280;50497;50.720;-2.084;2022-10-12T10:09:34;102049.19;;;18.27;100.00
64192;BME280;50497;50.720;-2.084;2022-10-12T10:12:24;102039.09;;;17.83;100.00
64192;BME280;50497;50.720;-2.084;2022-10-12T10:14:51;102033.56;;;17.37;100.00
64192;BME280;50497;50.720;-2.084;2022-10-12T10:17:37;102041.22;;;16.78;100.00
64192;BME280;50497;50.720;-2.084;2022-10-12T10:20:11;102051.97;;;16.62;100.00
64192;BME280;50497;50.720;-2.084;2022-10-12T10:22:50;102067.38;;;16.77;100.00
64192;BME280;50497;50.720;-2.084;2022-10-12T10:25:22;102059.00;;;17.82;100.00
64192;BME280;50497;50.720;-2.084;2022-10-12T10:30:35;102039.69;;;19.67;100.00
64192;BME280;50497;50.720;-2.084;2022-10-12T10:33:25;102049.56;;;20.37;100.00
64192;BME280;50497;50.720;-2.084;2022-10-12T10:35:59;102048.81;;;20.75;100.00
64192;BME280;50497;50.720;-2.084;2022-10-12T10:38:56;102046.41;;;21.09;100.00
64192;BME280;50497;50.720;-2.084;2022-10-12T10:41:32;102056.59;;;21.31;100.00
64192;BME280;50497;50.720;-2.084;2022-10-12T10:44:02;102059.34;;;20.93;100.00
64192;BME280;50497;50.720;-2.084;2022-10-12T10:46:32;102060.25;;;20.53;100.00
64192;BME280;50497;50.720;-2.084;2022-10-12T10:49:11;102060.34;;;18.98;100.00
64192;BME280;50497;50.720;-2.084;2022-10-12T10:51:51;102051.59;;;18.48;100.00
64192;BME280;50497;50.720;-2.084;2022-10-12T10:56:56;102049.34;;;18.40;100.00
64192;BME280;50497;50.720;-2.084;2022-10-12T10:59:34;102042.47;;;18.19;100.00
64192;BME280;50497;50.720;-2.084;2022-10-12T11:04:57;102053.97;;;19.13;100.00
64192;BME280;50497;50.720;-2.084;2022-10-12T11:08:21;102059.53;;;18.51;100.00
64192;BME280;50497;50.720;-2.084;2022-10-12T11:10:39;102059.03;;;17.98;100.00
64192;BME280;50497;50.720;-2.084;2022-10-12T11:13:16;102046.19;;;18.02;100.00
64192;BME280;50497;50.720;-2.084;2022-10-12T11:18:57;102039.50;;;20.65;100.00
64192;BME280;50497;50.720;-2.084;2022-10-12T11:24:15;102014.47;;;21.37;100.00
64192;BME280;50497;50.720;-2.084;2022-10-12T11:26:50;102004.66;;;21.60;100.00
64192;BME280;50497;50.720;-2.084;2022-10-12T11:29:24;102003.72;;;21.72;100.00
64192;BME280;50497;50.720;-2.084;2022-10-12T11:34:52;102005.00;;;20.53;100.00
64192;BME280;50497;50.720;-2.084;2022-10-12T11:37:25;102015.16;;;20.76;100.00
64192;BME280;50497;50.720;-2.084;2022-10-12T11:39:55;102010.81;;;22.23;100.00
64192;BME280;50497;50.720;-2.084;2022-10-12T11:42:38;101995.78;;;21.69;100.00
64192;BME280;50497;50.720;-2.084;2022-10-12T11:45:27;102013.56;;;21.86;100.00
64192;BME280;50497;50.720;-2.084;2022-10-12T11:48:11;102018.31;;;20.83;100.00
64192;BME280;50497;50.720;-2.084;2022-10-12T11:50:47;102022.50;;;19.67;100.00
64192;BME280;50497;50.720;-2.084;2022-10-12T11:56:28;101991.97;;;18.62;100.00
64192;BME280;50497;50.720;-2.084;2022-10-12T11:59:13;102001.06;;;18.47;100.00
64192;BME280;50497;50.720;-2.084;2022-10-12T12:04:35;102003.34;;;18.39;100.00
64192;BME280;50497;50.720;-2.084;2022-10-12T12:09:40;101977.06;;;19.56;100.00
64192;BME280;50497;50.720;-2.084;2022-10-12T12:12:26;101975.56;;;20.06;100.00
64192;BME280;50497;50.720;-2.084;2022-10-12T12:15:04;101966.84;;;21.80;100.00
64192;BME280;50497;50.720;-2.084;2022-10-12T12:17:32;101958.50;;;22.99;100.00
64192;BME280;50497;50.720;-2.084;2022-10-12T12:20:58;101961.16;;;24.10;100.00
64192;BME280;50497;50.720;-2.084;2022-10-12T12:22:49;101955.56;;;23.13;100.00
64192;BME280;50497;50.720;-2.084;2022-10-12T12:25:29;101954.09;;;22.28;100.00
64192;BME280;50497;50.720;-2.084;2022-10-12T12:28:04;101949.06;;;21.63;100.00
64192;BME280;50497;50.720;-2.084;2022-10-12T12:30:38;101947.59;;;20.83;100.00
64192;BME280;50497;50.720;-2.084;2022-10-12T12:33:28;101951.28;;;20.95;100.00
64192;BME280;50497;50.720;-2.084;2022-10-12T12:36:04;101943.66;;;20.61;100.00
64192;BME280;50497;50.720;-2.084;2022-10-12T12:38:53;101949.03;;;20.63;100.00
64192;BME280;50497;50.720;-2.084;2022-10-12T12:41:52;101953.63;;;20.35;100.00
64192;BME280;50497;50.720;-2.084;2022-10-12T12:44:40;101939.84;;;19.85;100.00
64192;BME280;50497;50.720;-2.084;2022-10-12T12:49:42;101927.38;;;20.74;100.00
64192;BME280;50497;50.720;-2.084;2022-10-12T12:52:27;101945.06;;;20.41;100.00
64192;BME280;50497;50.720;-2.084;2022-10-12T13:00:36;101931.63;;;20.00;100.00
64192;BME280;50497;50.720;-2.084;2022-10-12T13:14:05;101912.53;;;21.41;100.00
64192;BME280;50497;50.720;-2.084;2022-10-12T13:17:08;101908.28;;;21.50;100.00
64192;BME280;50497;50.720;-2.084;2022-10-12T13:19:37;101912.56;;;20.53;100.00
64192;BME280;50497;50.720;-2.084;2022-10-12T13:22:03;101909.25;;;19.96;100.00
64192;BME280;50497;50.720;-2.084;2022-10-12T13:24:36;101920.56;;;19.07;100.00
64192;BME280;50497;50.720;-2.084;2022-10-12T13:35:35;101935.06;;;18.48;100.00
64192;BME280;50497;50.720;-2.084;2022-10-12T13:38:27;101937.28;;;18.11;100.00
64192;BME280;50497;50.720;-2.084;2022-10-12T13:41:04;101932.09;;;18.08;100.00
64192;BME280;50497;50.720;-2.084;2022-10-12T13:43:37;101942.59;;;17.98;100.00
64192;BME280;50497;50.720;-2.084;2022-10-12T13:46:13;101950.63;;;18.00;100.00
64192;BME280;50497;50.720;-2.084;2022-10-12T13:48:46;101950.09;;;17.77;100.00
64192;BME280;50497;50.720;-2.084;2022-10-12T13:51:25;101957.81;;;17.53;100.00
64192;BME280;50497;50.720;-2.084;2022-10-12T13:53:58;101940.81;;;17.35;100.00
64192;BME280;50497;50.720;-2.084;2022-10-12T13:56:26;101949.41;;;17.58;100.00
64192;BME280;50497;50.720;-2.084;2022-10-12T13:58:59;101951.69;;;17.65;100.00
64192;BME280;50497;50.720;-2.084;2022-10-12T14:01:28;101946.13;;;17.52;100.00
64192;BME280;50497;50.720;-2.084;2022-10-12T14:04:04;101936.88;;;17.41;100.00
64192;BME280;50497;50.720;-2.084;2022-10-12T14:06:31;101932.69;;;17.35;100.00
64192;BME280;50497;50.720;-2.084;2022-10-12T14:09:26;101939.22;;;16.99;100.00
64192;BME280;50497;50.720;-2.084;2022-10-12T14:11:57;101921.59;;;17.08;100.00
64192;BME280;50497;50.720;-2.084;2022-10-12T14:16:57;101934.41;;;16.71;100.00
64192;BME280;50497;50.720;-2.084;2022-10-12T14:20:15;101932.56;;;16.89;100.00
64192;BME280;50497;50.720;-2.084;2022-10-12T14:22:47;101937.97;;;16.71;100.00
64192;BME280;50497;50.720;-2.084;2022-10-12T14:25:24;101941.59;;;16.54;100.00
64192;BME280;50497;50.720;-2.084;2022-10-12T14:27:55;101944.94;;;16.42;100.00
64192;BME280;50497;50.720;-2.084;2022-10-12T14:30:31;101944.28;;;16.37;100.00
64192;BME280;50497;50.720;-2.084;2022-10-12T14:33:20;101948.31;;;16.12;100.00
64192;BME280;50497;50.720;-2.084;2022-10-12T14:35:51;101946.31;;;16.16;100.00
64192;BME280;50497;50.720;-2.084;2022-10-12T14:38:47;101954.88;;;16.24;100.00
64192;BME280;50497;50.720;-2.084;2022-10-12T14:41:42;101944.63;;;16.13;100.00
64192;BME280;50497;50.720;-2.084;2022-10-12T14:44:12;101931.44;;;16.24;100.00